Time;durP1;ratioP1;P1;durP2;ratioP2;P2;SDS_P1;SDS_P2;PMS_P1;PMS_P2;Temp;Humidity;BMP_temperature;BMP_pressure;BME280_temperature;BME280_humidity;BME280_pressure;Samples;Min_cycle;Max_cycle;Signal;HPM_P1;HPM_P2
2022/09/23 00:00:13;;;;;;;9.70;3.90;;;;;;;6.52;100.00;96579.06;5040193;28;20221;-68
2022/09/23 00:02:39;;;;;;;4.53;2.93;;;;;;;6.53;100.00;96578.94;5039466;28;20208;-68
2022/09/23 00:05:07;;;;;;;6.10;3.60;;;;;;;6.55;100.00;96584.84;5040156;28;20206;-68
2022/09/23 00:07:33;;;;;;;6.37;3.43;;;;;;;6.46;100.00;96580.47;5041096;28;20193;-68
2022/09/23 00:10:00;;;;;;;9.40;3.63;;;;;;;6.43;99.81;96569.47;5039411;28;21085;-68
2022/09/23 00:12:26;;;;;;;5.13;3.40;;;;;;;6.39;99.43;96568.94;5040031;28;20264;-68
2022/09/23 00:14:54;;;;;;;7.00;3.10;;;;;;;6.47;100.00;96566.44;5040700;28;20205;-68
2022/09/23 00:17:22;;;;;;;6.27;3.93;;;;;;;6.40;100.00;96570.59;5038053;28;20470;-68
2022/09/23 00:19:49;;;;;;;6.73;3.57;;;;;;;6.40;100.00;96570.59;5040507;28;20801;-68
2022/09/23 00:22:16;;;;;;;7.00;4.00;;;;;;;6.44;100.00;96571.97;5039099;28;20212;-68
2022/09/23 00:24:43;;;;;;;8.63;4.07;;;;;;;6.31;100.00;96566.22;5040338;28;20292;-68
2022/09/23 00:27:09;;;;;;;6.50;3.83;;;;;;;6.31;100.00;96571.47;5039740;28;20212;-68
2022/09/23 00:29:36;;;;;;;6.00;3.37;;;;;;;6.34;100.00;96571.16;5040620;28;20225;-68
2022/09/23 00:32:04;;;;;;;6.60;3.53;;;;;;;6.41;100.00;96577.47;5040026;28;20204;-68
2022/09/23 00:34:31;;;;;;;6.53;3.77;;;;;;;6.25;100.00;96561.56;5038213;28;20204;-68
2022/09/23 00:36:57;;;;;;;8.50;3.63;;;;;;;6.29;100.00;96568.16;5039965;28;20209;-68
2022/09/23 00:39:25;;;;;;;5.63;3.40;;;;;;;6.22;100.00;96569.72;5038737;28;20228;-68
2022/09/23 00:41:51;;;;;;;5.90;3.00;;;;;;;6.22;100.00;96572.31;5039717;28;20251;-68
2022/09/23 00:44:48;;;;;;;6.33;3.83;;;;;;;6.36;100.00;96563.97;5038789;28;20198;-68
2022/09/23 00:47:20;;;;;;;6.00;4.37;;;;;;;6.32;100.00;96565.25;5039940;28;20209;-68
2022/09/23 00:49:51;;;;;;;8.30;4.23;;;;;;;6.40;100.00;96564.53;5039726;28;20248;-68
2022/09/23 00:52:20;;;;;;;6.50;3.87;;;;;;;6.32;100.00;96557.38;5035124;28;20696;-68
2022/09/23 00:54:48;;;;;;;5.33;3.17;;;;;;;6.19;98.50;96554.28;5039952;28;20216;-68
2022/09/23 00:57:19;;;;;;;5.63;3.50;;;;;;;6.14;98.19;96553.06;5040422;28;20205;-68
2022/09/23 00:59:46;;;;;;;8.10;4.20;;;;;;;6.11;100.00;96551.56;5039171;28;20286;-68
2022/09/23 01:02:14;;;;;;;5.60;3.63;;;;;;;6.11;99.54;96554.16;5039803;28;20209;-68
2022/09/23 01:04:42;;;;;;;5.17;3.10;;;;;;;6.13;98.68;96554.03;5039914;28;20205;-68
2022/09/23 01:07:09;;;;;;;6.63;3.50;;;;;;;5.93;96.75;96554.22;5039431;28;20561;-68
2022/09/23 01:09:36;;;;;;;4.63;3.27;;;;;;;5.90;95.88;96551.88;5038937;28;20216;-68
2022/09/23 01:12:14;;;;;;;5.77;3.20;;;;;;;5.85;96.82;96541.03;5039239;28;20692;-68
2022/09/23 01:14:57;;;;;;;6.17;3.87;;;;;;;5.80;100.00;96541.44;5038686;28;20216;-68
2022/09/23 01:17:38;;;;;;;7.10;3.20;;;;;;;5.72;100.00;96540.47;5035729;28;20204;-68
2022/09/23 01:20:46;;;;;;;4.10;3.10;;;;;;;5.82;100.00;96536.09;5039290;28;20248;-68
2022/09/23 01:23:48;;;;;;;6.83;3.37;;;;;;;5.83;99.47;96532.47;5039079;28;20209;-68
2022/09/23 01:26:38;;;;;;;5.13;3.10;;;;;;;5.77;98.07;96533.88;5038925;28;20204;-68
2022/09/23 01:29:29;;;;;;;5.73;3.17;;;;;;;5.68;98.30;96533.88;5038908;28;20224;-68
2022/09/23 01:32:05;;;;;;;4.33;2.87;;;;;;;5.66;98.70;96531.38;5038827;28;20816;-68
2022/09/23 01:34:41;;;;;;;4.47;3.10;;;;;;;5.56;98.60;96532.34;5038911;28;20212;-68
2022/09/23 01:37:14;;;;;;;7.43;3.80;;;;;;;5.49;97.92;96532.09;5038842;28;20200;-68
2022/09/23 01:39:45;;;;;;;6.53;2.60;;;;;;;5.30;100.00;96536.50;5038728;28;20295;-68
2022/09/23 01:42:17;;;;;;;8.40;3.50;;;;;;;5.36;100.00;96538.59;5038916;28;20205;-68
2022/09/23 01:44:49;;;;;;;5.20;3.20;;;;;;;5.34;100.00;96524.81;5038427;28;20577;-68
2022/09/23 01:47:22;;;;;;;7.03;3.20;;;;;;;5.43;99.24;96521.38;5037963;28;20208;-68
2022/09/23 01:49:55;;;;;;;5.97;3.13;;;;;;;5.38;98.92;96515.75;5037717;28;20232;-68
2022/09/23 01:52:28;;;;;;;5.10;3.00;;;;;;;5.31;99.90;96519.03;5038133;28;20201;-68
2022/09/23 01:55:01;;;;;;;6.00;3.10;;;;;;;5.20;100.00;96516.59;5037739;28;20216;-68
2022/09/23 01:57:33;;;;;;;6.80;3.20;;;;;;;5.29;100.00;96510.53;5038774;28;20197;-68
2022/09/23 02:00:05;;;;;;;5.30;2.97;;;;;;;5.18;99.46;96521.09;5039109;28;20223;-68
2022/09/23 02:02:40;;;;;;;5.03;3.30;;;;;;;5.27;99.55;96512.44;5036483;28;20205;-71
2022/09/23 02:05:13;;;;;;;6.47;3.30;;;;;;;5.36;98.37;96515.06;5036625;28;20249;-68
2022/09/23 02:07:42;;;;;;;6.30;2.97;;;;;;;5.29;98.27;96523.59;5038428;28;20686;-68
2022/09/23 02:10:13;;;;;;;5.93;2.90;;;;;;;5.19;98.67;96520.97;5038696;28;20236;-68
2022/09/23 02:12:44;;;;;;;7.60;3.40;;;;;;;5.09;100.00;96525.38;5038362;28;20548;-68
2022/09/23 02:15:15;;;;;;;4.53;3.27;;;;;;;5.10;100.00;96521.78;5034933;28;20291;-68
2022/09/23 02:17:48;;;;;;;4.63;3.00;;;;;;;5.10;100.00;96521.78;5037297;28;20200;-68
2022/09/23 02:20:20;;;;;;;5.03;3.07;;;;;;;5.11;99.33;96513.00;5039059;28;20222;-68
2022/09/23 02:22:54;;;;;;;6.73;3.43;;;;;;;5.06;100.00;96519.59;5038536;28;20266;-68
2022/09/23 02:25:25;;;;;;;6.73;3.53;;;;;;;5.01;100.00;96520.00;5037866;28;20207;-68
2022/09/23 02:27:58;;;;;;;6.37;3.60;;;;;;;5.06;100.00;96520.41;5038331;28;20209;-68
2022/09/23 02:30:28;;;;;;;5.47;3.00;;;;;;;5.08;100.00;96517.69;5038382;28;20236;-68
2022/09/23 02:33:03;;;;;;;6.03;3.37;;;;;;;5.11;99.64;96520.03;5037274;28;20208;-68
2022/09/23 02:35:35;;;;;;;4.67;2.80;;;;;;;4.97;98.73;96516.00;5037860;28;20216;-68
2022/09/23 02:38:15;;;;;;;8.67;3.83;;;;;;;4.98;99.22;96522.09;5037766;28;20205;-68
2022/09/23 02:40:53;;;;;;;6.43;3.67;;;;;;;5.03;99.99;96520.69;5038599;28;20193;-68
2022/09/23 02:43:27;;;;;;;6.10;3.40;;;;;;;4.91;100.00;96508.75;5037490;28;20691;-68
2022/09/23 02:45:54;;;;;;;4.67;3.10;;;;;;;4.72;100.00;96526.16;5038098;28;20216;-68
2022/09/23 02:48:26;;;;;;;7.27;3.70;;;;;;;4.76;100.00;96518.88;5037264;28;20205;-68
2022/09/23 02:50:53;;;;;;;6.00;3.47;;;;;;;4.78;100.00;96522.19;5037676;28;20220;-68
2022/09/23 02:53:22;;;;;;;5.70;3.27;;;;;;;4.90;99.08;96514.94;5036517;28;20208;-68
2022/09/23 02:55:49;;;;;;;4.10;2.93;;;;;;;4.75;98.70;96517.22;5038461;28;20661;-68
2022/09/23 02:58:17;;;;;;;5.40;3.17;;;;;;;4.75;98.71;96512.84;5037650;28;20209;-68
2022/09/23 03:00:52;;;;;;;5.73;3.03;;;;;;;4.81;97.70;96503.63;5037680;28;20194;-68
2022/09/23 03:03:36;;;;;;;4.70;3.23;;;;;;;4.86;97.07;96508.31;5040287;28;20676;-68
2022/09/23 03:06:13;;;;;;;3.37;2.33;;;;;;;4.82;97.81;96511.31;5040735;28;20197;-68
2022/09/23 03:08:49;;;;;;;5.87;3.13;;;;;;;4.71;98.42;96506.25;5041318;28;20225;-68
2022/09/23 03:11:16;;;;;;;6.57;2.93;;;;;;;4.57;100.00;96521.44;5041011;28;20243;-68
2022/09/23 03:13:54;;;;;;;5.27;3.00;;;;;;;4.79;99.86;96506.38;5041954;28;20201;-67
2022/09/23 03:16:31;;;;;;;4.77;3.10;;;;;;;4.79;99.21;96511.59;5041545;28;20201;-68
2022/09/23 03:19:11;;;;;;;4.30;3.00;;;;;;;4.72;98.07;96505.25;5039257;28;20217;-68
2022/09/23 03:21:44;;;;;;;4.17;2.80;;;;;;;4.69;97.56;96505.53;5042494;28;20201;-68
2022/09/23 03:24:14;;;;;;;4.17;2.57;;;;;;;4.59;97.84;96499.47;5041398;28;20201;-67
2022/09/23 03:26:44;;;;;;;4.93;2.70;;;;;;;4.60;99.33;96505.53;5042154;28;20197;-67
2022/09/23 03:29:12;;;;;;;9.07;3.27;;;;;;;4.51;100.00;96501.13;5042156;28;20229;-67
2022/09/23 03:31:41;;;;;;;4.70;2.53;;;;;;;4.65;99.76;96487.69;5042026;28;20236;-67
2022/09/23 03:34:13;;;;;;;5.60;3.40;;;;;;;4.54;100.00;96495.63;5042346;28;20248;-68
2022/09/23 03:36:52;;;;;;;4.80;3.00;;;;;;;4.59;100.00;96496.06;5043731;28;20235;-67
2022/09/23 03:39:28;;;;;;;5.97;3.13;;;;;;;4.81;100.00;96493.19;5041904;28;20217;-68
2022/09/23 03:41:59;;;;;;;5.23;3.27;;;;;;;4.83;99.45;96500.75;5043230;28;20205;-67
2022/09/23 03:44:27;;;;;;;8.00;3.67;;;;;;;4.73;98.86;96496.47;5042419;28;20208;-67
2022/09/23 03:46:54;;;;;;;5.77;3.17;;;;;;;4.57;100.00;96503.19;5042196;28;20275;-67
2022/09/23 03:49:26;;;;;;;12.47;4.43;;;;;;;4.66;100.00;96499.75;5042228;28;20808;-67
2022/09/23 03:51:53;;;;;;;8.30;4.50;;;;;;;4.57;100.00;96495.34;5042965;28;20224;-68
2022/09/23 03:54:19;;;;;;;10.43;4.43;;;;;;;4.62;100.00;96493.16;5042465;28;20204;-68
2022/09/23 03:56:47;;;;;;;10.63;4.50;;;;;;;4.64;100.00;96497.28;5042873;28;20205;-67
2022/09/23 03:59:14;;;;;;;6.83;3.73;;;;;;;4.75;100.00;96496.34;5042191;28;20802;-67
2022/09/23 04:01:41;;;;;;;8.67;4.13;;;;;;;4.77;100.00;96491.81;5042963;28;20204;-67
2022/09/23 04:04:08;;;;;;;10.53;4.23;;;;;;;4.67;100.00;96490.97;5040557;28;20205;-67
2022/09/23 04:06:36;;;;;;;9.10;4.50;;;;;;;4.77;100.00;96494.44;5043214;28;20211;-67
2022/09/23 04:09:02;;;;;;;6.60;3.60;;;;;;;4.75;100.00;96494.56;5041618;28;20231;-67
2022/09/23 04:11:29;;;;;;;9.60;4.27;;;;;;;4.73;100.00;96495.66;5043420;28;20224;-67
2022/09/23 04:13:56;;;;;;;10.53;5.13;;;;;;;4.63;100.00;96490.41;5042264;28;20205;-67
2022/09/23 04:16:22;;;;;;;15.00;4.47;;;;;;;4.50;100.00;96489.84;5042487;28;20201;-67
2022/09/23 04:18:49;;;;;;;7.73;3.97;;;;;;;4.65;100.00;96491.13;5041537;28;20229;-67
2022/09/23 04:21:16;;;;;;;8.20;4.20;;;;;;;4.60;100.00;96484.66;5041679;28;20201;-67
2022/09/23 04:23:45;;;;;;;9.00;4.07;;;;;;;4.58;100.00;96486.56;5043247;28;20228;-67
2022/09/23 04:26:11;;;;;;;8.27;4.53;;;;;;;4.49;100.00;96483.00;5042258;28;20197;-67
2022/09/23 04:28:38;;;;;;;8.67;4.50;;;;;;;4.51;100.00;96495.91;5042948;28;20221;-67
2022/09/23 04:31:05;;;;;;;6.27;3.77;;;;;;;4.46;100.00;96492.88;5044049;28;20768;-67
2022/09/23 04:33:32;;;;;;;9.10;4.63;;;;;;;4.35;100.00;96487.75;5043659;28;20597;-67
2022/09/23 04:35:59;;;;;;;10.57;5.03;;;;;;;4.42;100.00;96486.28;5043392;28;20197;-67
2022/09/23 04:38:26;;;;;;;12.00;6.47;;;;;;;4.50;100.00;96484.63;5043660;28;20225;-67
2022/09/23 04:40:53;;;;;;;17.00;6.20;;;;;;;4.72;100.00;96480.97;5043400;28;20200;-67
2022/09/23 04:43:22;;;;;;;13.97;6.50;;;;;;;4.61;100.00;96492.34;5042482;28;20758;-67
2022/09/23 04:45:57;;;;;;;10.87;5.47;;;;;;;4.72;100.00;96489.59;5044063;28;20217;-68
2022/09/23 04:48:24;;;;;;;11.23;5.93;;;;;;;4.58;100.00;96481.34;5042632;28;20236;-67
2022/09/23 04:50:51;;;;;;;13.27;6.20;;;;;;;4.52;100.00;96485.34;5043917;28;20209;-68
2022/09/23 04:53:18;;;;;;;14.63;5.93;;;;;;;4.48;100.00;96480.50;5042656;28;20673;-67
2022/09/23 04:55:44;;;;;;;11.20;5.93;;;;;;;4.48;100.00;96477.91;5042973;28;20335;-67
2022/09/23 04:58:12;;;;;;;13.87;6.07;;;;;;;4.72;100.00;96483.56;5042440;28;20209;-67
2022/09/23 05:00:38;;;;;;;10.23;5.83;;;;;;;4.73;100.00;96480.00;5043086;28;20574;-68
2022/09/23 05:03:05;;;;;;;12.40;6.07;;;;;;;4.62;100.00;96486.19;5041500;28;20553;-68
2022/09/23 05:05:31;;;;;;;12.30;5.47;;;;;;;4.59;100.00;96483.00;5042348;28;20207;-68
2022/09/23 05:07:58;;;;;;;11.87;6.10;;;;;;;4.48;100.00;96490.94;5042646;28;20259;-68
2022/09/23 05:10:25;;;;;;;9.67;5.30;;;;;;;4.42;100.00;96488.88;5042664;28;20968;-67
2022/09/23 05:12:51;;;;;;;10.53;5.53;;;;;;;4.42;100.00;96492.31;5041016;28;20810;-68
2022/09/23 05:15:20;;;;;;;11.90;5.73;;;;;;;4.56;100.00;96478.88;5037843;28;20201;-68
2022/09/23 05:17:46;;;;;;;10.17;5.50;;;;;;;4.46;100.00;96492.88;5034333;28;20288;-68
2022/09/23 05:20:13;;;;;;;12.00;5.37;;;;;;;4.41;100.00;96490.66;5036742;28;20221;-68
2022/09/23 05:22:39;;;;;;;8.60;5.10;;;;;;;4.37;100.00;96485.84;5035879;28;20229;-68
2022/09/23 05:25:06;;;;;;;12.57;5.57;;;;;;;4.43;100.00;96493.13;5036345;28;20208;-68
2022/09/23 05:27:33;;;;;;;14.60;4.47;;;;;;;4.44;100.00;96494.78;5037205;28;20205;-68
2022/09/23 05:29:59;;;;;;;13.40;4.97;;;;;;;4.38;100.00;96490.13;5040766;28;20220;-68
2022/09/23 05:32:27;;;;;;;11.23;4.97;;;;;;;4.45;100.00;96492.03;5037549;28;20225;-67
2022/09/23 05:34:54;;;;;;;14.00;4.47;;;;;;;4.45;100.00;96496.44;5036275;28;20209;-67
2022/09/23 05:37:21;;;;;;;6.27;3.50;;;;;;;4.41;100.00;96497.66;5036307;28;20205;-67
2022/09/23 05:39:47;;;;;;;6.93;3.53;;;;;;;4.36;100.00;96499.84;5036721;28;20598;-67
2022/09/23 05:42:15;;;;;;;7.03;3.80;;;;;;;4.37;100.00;96493.69;5035818;28;20201;-66
2022/09/23 05:44:42;;;;;;;10.63;3.53;;;;;;;4.45;100.00;96496.44;5035979;28;20201;-66
2022/09/23 05:47:08;;;;;;;8.33;2.73;;;;;;;4.49;100.00;96496.03;5038954;28;20206;-68
2022/09/23 05:49:36;;;;;;;4.60;2.83;;;;;;;4.59;100.00;96494.25;5041291;28;20244;-67
2022/09/23 05:52:02;;;;;;;8.43;3.00;;;;;;;4.58;100.00;96494.41;5041262;28;20232;-68
2022/09/23 05:54:29;;;;;;;7.47;3.27;;;;;;;4.61;100.00;96497.56;5041696;28;20205;-68
2022/09/23 05:56:55;;;;;;;6.70;3.07;;;;;;;4.74;100.00;96502.53;5042985;28;20209;-68
2022/09/23 05:59:22;;;;;;;6.57;3.47;;;;;;;4.82;100.00;96500.06;5041127;28;21028;-68
2022/09/23 06:01:49;;;;;;;14.33;3.10;;;;;;;4.75;100.00;96494.56;5042172;28;20216;-68
2022/09/23 06:04:15;;;;;;;5.13;3.40;;;;;;;4.91;100.00;96495.69;5041816;28;20201;-68
2022/09/23 06:06:43;;;;;;;9.07;3.93;;;;;;;4.98;100.00;96503.81;5041913;28;20209;-68
2022/09/23 06:09:13;;;;;;;10.03;4.23;;;;;;;4.99;100.00;96493.22;5041866;28;20264;-68
2022/09/23 06:11:40;;;;;;;9.83;3.57;;;;;;;4.97;100.00;96495.13;5041707;28;20231;-68
2022/09/23 06:14:08;;;;;;;7.10;3.83;;;;;;;5.04;100.00;96496.25;5040262;28;20232;-68
2022/09/23 06:16:35;;;;;;;13.23;4.00;;;;;;;5.12;100.00;96488.53;5041416;28;20208;-67
2022/09/23 06:19:04;;;;;;;19.53;4.73;;;;;;;5.13;100.00;96500.63;5033714;28;20236;-67
2022/09/23 06:21:31;;;;;;;11.90;4.37;;;;;;;5.11;100.00;96499.94;5036118;28;20208;-67
2022/09/23 06:24:00;;;;;;;15.40;4.60;;;;;;;5.18;100.00;96506.28;5035003;28;20201;-67
2022/09/23 06:26:32;;;;;;;5.20;3.40;;;;;;;5.04;100.00;96509.31;5036355;28;20228;-70
2022/09/23 06:28:59;;;;;;;10.30;5.03;;;;;;;5.07;100.00;96511.63;5036893;28;20225;-70
2022/09/23 06:31:26;;;;;;;5.87;3.60;;;;;;;5.03;100.00;96510.25;5035300;28;20197;-67
2022/09/23 06:33:53;;;;;;;9.63;4.27;;;;;;;5.18;100.00;96508.91;5035369;28;20201;-66
2022/09/23 06:36:19;;;;;;;7.33;3.87;;;;;;;5.24;100.00;96507.50;5036484;28;20262;-67
2022/09/23 06:38:48;;;;;;;5.47;3.10;;;;;;;5.24;100.00;96512.72;5039588;28;20232;-67
2022/09/23 06:41:16;;;;;;;7.90;4.43;;;;;;;5.33;100.00;96506.69;5038961;28;20750;-67
2022/09/23 06:43:43;;;;;;;13.47;5.20;;;;;;;5.25;100.00;96504.75;5039032;28;20197;-67
2022/09/23 06:46:14;;;;;;;10.43;4.50;;;;;;;5.42;100.00;96506.66;5038511;28;20224;-67
2022/09/23 06:48:42;;;;;;;10.87;4.07;;;;;;;5.38;100.00;96507.91;5039735;28;20859;-66
2022/09/23 06:51:11;;;;;;;8.23;4.37;;;;;;;5.48;100.00;96506.91;5039258;28;20599;-67
2022/09/23 06:53:38;;;;;;;7.77;4.03;;;;;;;5.50;100.00;96510.22;5038868;28;20229;-67
2022/09/23 06:56:07;;;;;;;9.00;4.10;;;;;;;5.62;100.00;96506.50;5037013;28;20221;-67
2022/09/23 06:58:36;;;;;;;9.20;4.37;;;;;;;5.75;100.00;96508.81;5038456;28;20743;-67
2022/09/23 07:01:05;;;;;;;9.40;4.97;;;;;;;5.89;100.00;96508.38;5038288;28;20666;-67
2022/09/23 07:03:33;;;;;;;8.93;4.23;;;;;;;5.86;100.00;96506.06;5037485;28;20205;-67
2022/09/23 07:06:00;;;;;;;20.90;6.60;;;;;;;6.01;100.00;96512.47;5038716;28;20205;-67
2022/09/23 07:08:28;;;;;;;17.40;5.80;;;;;;;6.18;100.00;96513.38;5038922;28;20221;-68
2022/09/23 07:10:56;;;;;;;12.10;6.00;;;;;;;6.29;100.00;96515.00;5038547;28;20205;-68
2022/09/23 07:13:23;;;;;;;16.13;6.37;;;;;;;6.37;100.00;96508.06;5036540;28;20221;-69
2022/09/23 07:15:52;;;;;;;11.60;5.23;;;;;;;6.39;100.00;96506.13;5037174;28;20214;-68
2022/09/23 07:18:22;;;;;;;10.60;5.20;;;;;;;6.50;100.00;96513.78;5037358;28;20202;-67
2022/09/23 07:20:49;;;;;;;9.93;5.70;;;;;;;6.61;100.00;96516.22;5035843;28;20692;-67
2022/09/23 07:23:16;;;;;;;12.57;6.00;;;;;;;6.57;100.00;96514.84;5036796;28;20689;-68
2022/09/23 07:25:43;;;;;;;33.70;16.17;;;;;;;6.73;100.00;96509.78;5036087;28;20216;-68
2022/09/23 07:28:09;;;;;;;13.80;5.60;;;;;;;6.86;100.00;96515.50;5042732;28;20207;-68
2022/09/23 07:30:37;;;;;;;12.47;5.10;;;;;;;7.12;100.00;96505.94;5040619;28;20852;-68
2022/09/23 07:33:05;;;;;;;10.73;5.17;;;;;;;7.26;100.00;96505.44;5040055;28;20640;-68
2022/09/23 07:35:33;;;;;;;7.17;4.63;;;;;;;7.39;100.00;96504.88;5042327;28;20212;-68
2022/09/23 07:38:00;;;;;;;9.50;5.27;;;;;;;7.55;100.00;96509.44;5043529;28;20201;-68
2022/09/23 07:40:26;;;;;;;7.73;4.57;;;;;;;7.66;100.00;96506.56;5040634;28;20227;-68
2022/09/23 07:42:54;;;;;;;9.30;5.60;;;;;;;7.86;100.00;96508.84;5037328;28;20201;-68
2022/09/23 07:45:21;;;;;;;8.43;4.67;;;;;;;7.95;100.00;96500.06;5037565;28;20216;-67
2022/09/23 07:47:48;;;;;;;9.23;5.40;;;;;;;8.07;100.00;96504.03;5036848;28;20750;-67
2022/09/23 07:50:17;;;;;;;7.80;4.83;;;;;;;8.19;100.00;96505.47;5036704;28;20468;-68
2022/09/23 07:52:44;;;;;;;10.03;5.47;;;;;;;8.17;100.00;96507.44;5036397;28;20422;-67
2022/09/23 07:55:13;;;;;;;11.93;5.23;;;;;;;8.28;100.00;96512.41;5038493;28;20209;-68
2022/09/23 07:57:39;;;;;;;11.43;6.40;;;;;;;8.43;100.00;96508.22;5036261;28;20238;-68
2022/09/23 08:00:08;;;;;;;11.10;5.83;;;;;;;8.64;100.00;96502.41;5037884;28;20244;-67
2022/09/23 08:02:34;;;;;;;10.23;5.73;;;;;;;8.64;100.00;96514.72;5037358;28;20194;-67
2022/09/23 08:05:01;;;;;;;11.10;5.83;;;;;;;8.69;100.00;96504.53;5037807;28;20847;-67
2022/09/23 08:07:28;;;;;;;13.73;6.07;;;;;;;8.78;100.00;96501.81;5037669;28;20201;-68
2022/09/23 08:09:55;;;;;;;13.53;6.00;;;;;;;8.78;100.00;96499.19;5038307;28;20747;-68
2022/09/23 08:12:21;;;;;;;10.83;6.83;;;;;;;8.82;100.00;96494.41;5037186;28;20231;-68
2022/09/23 08:14:48;;;;;;;13.60;5.97;;;;;;;8.76;100.00;96505.56;5038270;28;20209;-68
2022/09/23 08:17:15;;;;;;;11.37;6.90;;;;;;;8.84;100.00;96495.88;5037751;28;20355;-68
2022/09/23 08:19:41;;;;;;;10.73;7.00;;;;;;;8.97;100.00;96498.06;5038527;28;20319;-68
2022/09/23 08:22:08;;;;;;;13.50;7.00;;;;;;;9.06;100.00;96497.91;5037652;28;20573;-67
2022/09/23 08:24:36;;;;;;;11.07;6.43;;;;;;;9.22;100.00;96488.25;5037510;28;20208;-68
2022/09/23 08:27:02;;;;;;;8.57;5.20;;;;;;;9.20;100.00;96489.38;5037525;28;20212;-68
2022/09/23 08:29:29;;;;;;;11.83;6.57;;;;;;;9.32;100.00;96493.38;5037880;28;20225;-68
2022/09/23 08:31:55;;;;;;;12.60;6.90;;;;;;;9.52;100.00;96492.03;5037797;28;20216;-67
2022/09/23 08:34:23;;;;;;;14.23;7.00;;;;;;;9.57;100.00;96493.22;5036480;28;20217;-68
2022/09/23 08:36:51;;;;;;;15.20;8.33;;;;;;;9.82;100.00;96493.00;5041380;28;20213;-69
2022/09/23 08:39:19;;;;;;;20.53;8.33;;;;;;;9.91;99.88;96502.53;5040891;28;20235;-69
2022/09/23 08:42:02;;;;;;;14.20;7.40;;;;;;;10.16;99.15;96492.84;5041416;28;20205;-69
2022/09/23 08:44:34;;;;;;;12.93;7.70;;;;;;;10.40;97.28;96498.88;5040636;28;20208;-69
2022/09/23 08:47:10;;;;;;;12.30;6.80;;;;;;;10.56;97.84;96489.06;5039797;28;20197;-69
2022/09/23 08:49:41;;;;;;;11.97;7.40;;;;;;;10.80;95.74;96491.59;5037670;28;20251;-69
2022/09/23 08:52:14;;;;;;;9.93;5.77;;;;;;;10.61;91.00;96491.22;5038533;28;20204;-69
2022/09/23 08:54:40;;;;;;;13.57;7.67;;;;;;;10.47;91.92;96495.38;5037562;28;20209;-69
2022/09/23 08:57:26;;;;;;;13.90;7.67;;;;;;;10.71;93.41;96492.63;5038719;28;20685;-69
2022/09/23 08:59:53;;;;;;;13.47;7.47;;;;;;;10.93;93.04;96491.06;5037837;28;20597;-69
2022/09/23 09:02:22;;;;;;;13.50;7.83;;;;;;;11.16;92.58;96471.63;5039970;28;20204;-69
2022/09/23 09:04:54;;;;;;;12.80;7.50;;;;;;;11.44;91.14;96480.66;5041239;28;20216;-69
2022/09/23 09:07:28;;;;;;;13.27;7.50;;;;;;;11.57;91.04;96472.03;5040824;28;20201;-69
2022/09/23 09:10:00;;;;;;;13.60;7.53;;;;;;;11.64;92.18;96472.13;5040544;28;20217;-69
2022/09/23 09:12:34;;;;;;;14.47;7.50;;;;;;;11.95;90.74;96471.03;5040481;28;20209;-69
2022/09/23 09:15:03;;;;;;;12.00;7.07;;;;;;;12.16;89.53;96468.50;5041430;28;20673;-69
2022/09/23 09:17:38;;;;;;;12.57;7.40;;;;;;;12.27;88.90;96466.22;5043127;28;20300;-69
2022/09/23 09:20:21;;;;;;;18.23;7.50;;;;;;;12.53;84.78;96463.94;5041944;28;20319;-69
2022/09/23 09:22:53;;;;;;;11.57;6.43;;;;;;;12.61;83.58;96458.56;5040536;28;20675;-69
2022/09/23 09:25:36;;;;;;;13.00;6.57;;;;;;;12.39;84.57;96461.31;5042526;28;20201;-69
2022/09/23 09:28:14;;;;;;;10.40;6.20;;;;;;;12.53;85.30;96471.06;5043801;28;20201;-69
2022/09/23 09:30:40;;;;;;;18.98;7.85;;;;;;;12.74;85.33;96457.91;5040987;28;20205;-69
2022/09/23 09:33:14;;;;;;;13.55;6.90;;;;;;;13.17;84.50;96455.19;5040628;28;20225;-69
2022/09/23 09:35:54;;;;;;;9.77;5.75;;;;;;;12.98;83.55;96461.06;5042424;28;20263;-69
2022/09/23 09:38:21;;;;;;;13.13;7.47;;;;;;;12.73;85.33;96459.75;5039781;28;20204;-69
2022/09/23 09:40:48;;;;;;;11.97;6.47;;;;;;;12.79;84.12;96457.19;5041352;28;20673;-69
2022/09/23 09:43:21;;;;;;;13.30;7.90;;;;;;;12.76;85.18;96450.63;5040653;28;20204;-69
2022/09/23 09:45:59;;;;;;;12.77;7.43;;;;;;;13.06;84.16;96447.72;5040319;28;20716;-69
2022/09/23 09:48:36;;;;;;;12.30;7.13;;;;;;;13.10;83.19;96441.09;5041974;28;20232;-69
2022/09/23 09:51:18;;;;;;;10.27;6.10;;;;;;;13.11;83.62;96426.81;5041501;28;20211;-69
2022/09/23 09:53:45;;;;;;;9.30;5.97;;;;;;;13.23;83.03;96433.28;5042306;28;20277;-69
2022/09/23 09:56:15;;;;;;;9.07;6.35;;;;;;;13.60;82.82;96431.19;5041649;28;20213;-69
2022/09/23 09:58:47;;;;;;;13.48;7.18;;;;;;;13.92;79.69;96428.00;5041479;28;20225;-69
2022/09/23 10:01:21;;;;;;;10.95;6.80;;;;;;;14.25;80.66;96424.56;5041619;28;20201;-69
2022/09/23 10:03:49;;;;;;;10.15;6.47;;;;;;;14.22;79.71;96428.44;5041905;28;20212;-69
2022/09/23 10:06:20;;;;;;;12.35;6.93;;;;;;;14.23;78.48;96423.94;5042006;28;20201;-70
2022/09/23 10:08:49;;;;;;;12.27;7.00;;;;;;;14.29;78.97;96418.69;5041965;28;20229;-69
2022/09/23 10:11:18;;;;;;;10.50;6.72;;;;;;;14.51;78.66;96412.28;5038774;28;20683;-69
2022/09/23 10:14:03;;;;;;;11.38;6.72;;;;;;;14.97;79.80;96408.81;5039616;28;20225;-69
2022/09/23 10:16:31;;;;;;;11.48;6.35;;;;;;;15.11;78.78;96410.47;5039860;28;20259;-69
2022/09/23 10:18:59;;;;;;;10.32;6.57;;;;;;;14.86;82.20;96406.72;5040468;28;20752;-69
2022/09/23 10:21:33;;;;;;;10.63;6.47;;;;;;;15.17;75.84;96400.88;5040075;28;20202;-69
2022/09/23 10:24:01;;;;;;;8.93;6.15;;;;;;;15.24;77.11;96396.44;5037214;28;20672;-69
2022/09/23 10:26:31;;;;;;;8.27;5.70;;;;;;;15.19;73.62;96398.84;5039401;28;20201;-69
2022/09/23 10:29:00;;;;;;;7.78;4.65;;;;;;;15.14;72.81;96396.78;5040281;28;20229;-69
2022/09/23 10:31:30;;;;;;;7.22;4.68;;;;;;;15.21;72.34;96394.19;5039506;28;20657;-69
2022/09/23 10:33:59;;;;;;;13.63;6.00;;;;;;;15.10;73.48;96395.56;5039598;28;20225;-69
2022/09/23 10:36:26;;;;;;;8.57;5.28;;;;;;;15.27;76.31;96397.69;5040072;28;20231;-69
2022/09/23 10:46:36;;;;;;;9.32;5.43;;;;;;;15.37;75.97;96391.97;5040214;28;20225;-69
2022/09/23 10:47:51;;;;;;;9.45;5.68;;;;;;;15.97;71.91;96389.91;5039472;28;20239;-69
2022/09/23 10:50:31;;;;;;;10.85;5.38;;;;;;;16.16;72.61;96381.91;5039607;28;20233;-69
2022/09/23 10:53:09;;;;;;;10.43;5.32;;;;;;;15.97;69.48;96382.78;5038315;28;20216;-69
2022/09/23 10:55:59;;;;;;;9.45;5.43;;;;;;;15.90;71.01;96383.81;5040037;28;20292;-69
2022/09/23 10:58:59;;;;;;;7.45;4.65;;;;;;;16.13;68.70;96379.69;5039853;28;20233;-70
2022/09/23 11:01:37;;;;;;;9.95;5.40;;;;;;;16.10;69.60;96376.59;5039396;28;20205;-69
2022/09/23 11:04:31;;;;;;;9.65;5.53;;;;;;;16.23;72.58;96372.09;5039762;28;20193;-69
2022/09/23 11:07:13;;;;;;;9.65;5.40;;;;;;;16.17;68.21;96375.56;5039133;28;20197;-69
2022/09/23 11:09:53;;;;;;;10.73;4.57;;;;;;;16.42;69.52;96371.25;5038497;28;20750;-69
2022/09/23 11:12:32;;;;;;;10.18;5.45;;;;;;;16.47;68.91;96357.31;5039373;28;20198;-69
2022/09/23 11:15:15;;;;;;;9.00;5.93;;;;;;;16.45;68.34;96364.72;5039970;28;20228;-69
2022/09/23 11:18:14;;;;;;;8.60;5.25;;;;;;;16.68;69.68;96357.84;5041254;28;20241;-69
2022/09/23 11:20:53;;;;;;;8.98;5.50;;;;;;;16.81;69.11;96355.13;5045500;28;20259;-70
2022/09/23 11:23:34;;;;;;;9.48;5.10;;;;;;;16.87;68.34;96347.09;5043380;28;20596;-70
2022/09/23 11:26:11;;;;;;;6.80;4.78;;;;;;;17.04;70.22;96347.44;5044806;28;20201;-70
2022/09/23 11:28:55;;;;;;;10.52;5.90;;;;;;;16.88;71.22;96339.94;5044922;28;20397;-70
2022/09/23 11:31:35;;;;;;;11.48;6.28;;;;;;;16.66;70.34;96339.44;5045067;28;20209;-70
2022/09/23 11:34:21;;;;;;;11.15;6.22;;;;;;;16.75;68.91;96334.69;5042980;28;20245;-69
2022/09/23 11:36:52;;;;;;;11.23;6.57;;;;;;;16.75;68.95;96334.69;5044514;28;20262;-70
2022/09/23 11:39:23;;;;;;;9.93;6.07;;;;;;;16.55;71.78;96333.97;5045908;28;20243;-70
2022/09/23 11:41:54;;;;;;;8.52;5.40;;;;;;;16.86;72.60;96332.16;5044280;28;20209;-70
2022/09/23 11:44:27;;;;;;;11.25;6.25;;;;;;;16.80;71.03;96337.53;5043424;28;20189;-70
2022/09/23 11:46:58;;;;;;;10.30;6.28;;;;;;;16.52;71.51;96323.72;5044242;28;20205;-70
2022/09/23 11:49:31;;;;;;;13.10;6.28;;;;;;;16.76;72.14;96325.66;5041677;28;20228;-70
2022/09/23 11:52:05;;;;;;;9.57;5.88;;;;;;;16.75;73.99;96318.72;5043115;28;20600;-70
2022/09/23 11:54:39;;;;;;;7.90;5.10;;;;;;;16.97;71.86;96320.84;5041916;28;20220;-70